»·PEaware :: N373EB KTUS-KCOS

N373EB :: KTUS-KCOS

FLIGHT INFORMATION

Flight Status: Arrived
Operator: Privately registered:
United States
More flights under this callsign
Pilot: Peder R. (40111)
Aircraft: BEECH AIRCRAFT DEBONAIR BONANZA
(BE33)
More flights by this aircraft type
Origin: KTUS Tucson Intl
United States
Destination: KCOS City Of Colorado Springs Mun
United States
More flights between these airports :: More routes between these airports
Route: TUS V16 SSO V202 TCS V611 ONM V187 ABQ FTI V263 CIM V611 PUB
File this flight plan on PilotEdge
Remarks: I plan to fly the ODP at KTUS. Somewhere near the halfway point, if I don't like the METARs at KCOS, I may divert to KABQ.
Altitude:
(Current/Filed)
13,000ft
Speed:
(Current/Filed)
155kts
Departed: 29-Sep-23 12:44 PM
Arrived: 29-Sep-23 04:43 PM
Distance/Time
Traveled:
503nm/3:59
Distance/Time
To Go:
Arrived

Flight Plot

Page will automatically refresh every two minutes.

Flight plan parsing failed; only flown route is shown


Map Options




Map Legend


Flown Route
Filed Route
Departure Airport
Arrival Airport
Navaid (VOR, NDB)
Fix

Horizontal Profiles

Position Reports

Time Latitude Longitude Heading Altitude Ground
Speed
29-Sep-23 12:09 32.116579 -110.952224 180 2575ft 0kts
29-Sep-23 12:10 32.116579 -110.952224 180 2575ft 0kts
29-Sep-23 12:11 32.116579 -110.952224 180 2575ft 0kts
29-Sep-23 12:12 32.116579 -110.952224 180 2575ft 0kts
29-Sep-23 12:13 32.116579 -110.952224 180 2575ft 0kts
29-Sep-23 12:14 32.116579 -110.952224 180 2575ft 0kts
29-Sep-23 12:16 32.116579 -110.952224 180 2575ft 0kts
29-Sep-23 12:17 32.116579 -110.952224 180 2575ft 0kts
29-Sep-23 12:18 32.116579 -110.952224 180 2575ft 0kts
29-Sep-23 12:19 32.116579 -110.952224 180 2575ft 0kts
29-Sep-23 12:20 32.116579 -110.952224 180 2575ft 0kts
29-Sep-23 12:21 32.116579 -110.952224 180 2575ft 0kts
29-Sep-23 12:22 32.116579 -110.952224 180 2575ft 0kts
29-Sep-23 12:23 32.116579 -110.952224 180 2575ft 0kts
29-Sep-23 12:24 32.116579 -110.952224 180 2575ft 0kts
29-Sep-23 12:25 32.116579 -110.952224 180 2575ft 0kts
29-Sep-23 12:26 32.116579 -110.952224 180 2575ft 0kts
29-Sep-23 12:27 32.116579 -110.952224 180 2575ft 0kts
29-Sep-23 12:28 32.116579 -110.952224 180 2575ft 0kts
29-Sep-23 12:29 32.116579 -110.952224 180 2575ft 0kts
29-Sep-23 12:30 32.116530 -110.952224 180 2575ft 1kts
29-Sep-23 12:31 32.115818 -110.954119 266 2572ft 8kts
29-Sep-23 12:32 32.116866 -110.955664 351 2567ft 8kts
29-Sep-23 12:33 32.119061 -110.954230 43 2567ft 13kts
29-Sep-23 12:34 32.121339 -110.951589 45 2570ft 20kts
29-Sep-23 12:35 32.124734 -110.946963 123 2572ft 10kts
29-Sep-23 12:36 32.121191 -110.942822 134 2587ft 21kts
29-Sep-23 12:37 32.117181 -110.938111 134 2601ft 22kts
29-Sep-23 12:38 32.112214 -110.932295 134 2619ft 25kts
29-Sep-23 12:39 32.107914 -110.927262 134 2634ft 18kts
29-Sep-23 12:40 32.104334 -110.923067 133 2648ft 11kts
29-Sep-23 12:41 32.103325 -110.921861 138 2651ft 0kts
29-Sep-23 12:42 32.102783 -110.922097 228 2650ft 0kts
29-Sep-23 12:43 32.104563 -110.925851 314 2638ft 67kts
29-Sep-23 12:44 32.124262 -110.948690 308 3090ft 106kts
29-Sep-23 12:45 32.150534 -110.947774 61 3903ft 124kts
29-Sep-23 12:46 32.141249 -110.915147 100 4769ft 110kts
29-Sep-23 12:47 32.138300 -110.877572 99 5483ft 114kts
29-Sep-23 12:48 32.133188 -110.840100 102 6188ft 116kts
29-Sep-23 12:49 32.128953 -110.802072 101 6841ft 119kts
29-Sep-23 12:50 32.124682 -110.763229 100 7470ft 118kts
29-Sep-23 12:51 32.129421 -110.723650 78 8023ft 124kts
29-Sep-23 12:52 32.136525 -110.684103 81 8547ft 125kts
29-Sep-23 12:53 32.142223 -110.644531 78 9097ft 121kts
29-Sep-23 12:54 32.149705 -110.604649 81 9548ft 122kts
29-Sep-23 12:55 32.156397 -110.564452 81 9978ft 125kts
29-Sep-23 12:56 32.162644 -110.524474 81 10420ft 124kts
29-Sep-23 12:57 32.168345 -110.484339 79 10849ft 122kts
29-Sep-23 12:58 32.175116 -110.444486 80 11232ft 123kts
29-Sep-23 12:59 32.169644 -110.405648 107 11599ft 118kts
29-Sep-23 13:00 32.159571 -110.367648 103 11937ft 120kts
29-Sep-23 13:01 32.160108 -110.327286 84 12255ft 123kts
29-Sep-23 13:02 32.164208 -110.286221 84 12559ft 125kts
29-Sep-23 13:03 32.169042 -110.244889 85 12854ft 125kts
29-Sep-23 13:04 32.173626 -110.202568 85 13079ft 132kts
29-Sep-23 13:05 32.178576 -110.155429 85 13081ft 150kts
29-Sep-23 13:06 32.185118 -110.103799 83 13097ft 159kts
29-Sep-23 13:07 32.190708 -110.049907 86 13091ft 163kts
29-Sep-23 13:08 32.194884 -109.995729 86 13111ft 165kts
29-Sep-23 13:09 32.199498 -109.940867 85 13072ft 167kts
29-Sep-23 13:10 32.205802 -109.886181 86 13083ft 164kts
29-Sep-23 13:11 32.211449 -109.831764 85 13049ft 165kts
29-Sep-23 13:12 32.217021 -109.777195 85 13046ft 165kts
29-Sep-23 13:13 32.222752 -109.722989 84 13032ft 165kts
29-Sep-23 13:14 32.228581 -109.668735 85 13021ft 165kts
29-Sep-23 13:15 32.234212 -109.614132 85 13006ft 165kts
29-Sep-23 13:16 32.240045 -109.559500 86 12994ft 165kts
29-Sep-23 13:17 32.244959 -109.505035 86 12994ft 164kts
29-Sep-23 13:18 32.250746 -109.450870 87 13005ft 163kts
29-Sep-23 13:19 32.255101 -109.396837 86 13029ft 163kts
29-Sep-23 13:20 32.261839 -109.342834 86 13043ft 163kts
29-Sep-23 13:21 32.267203 -109.288788 87 13015ft 164kts
29-Sep-23 13:22 32.278900 -109.235530 70 13014ft 166kts
29-Sep-23 13:23 32.296019 -109.184046 69 13001ft 167kts
29-Sep-23 13:24 32.314049 -109.132219 69 12981ft 168kts
29-Sep-23 13:25 32.331641 -109.079336 69 12894ft 172kts
29-Sep-23 13:26 32.349210 -109.024875 69 12784ft 175kts
29-Sep-23 13:27 32.367316 -108.971271 69 12768ft 173kts
29-Sep-23 13:28 32.384737 -108.917605 68 12775ft 173kts
29-Sep-23 13:29 32.402867 -108.864824 69 12858ft 170kts
29-Sep-23 13:30 32.420750 -108.811687 68 12930ft 170kts
29-Sep-23 13:31 32.439049 -108.759026 67 12983ft 171kts
29-Sep-23 13:32 32.456508 -108.705830 69 13038ft 171kts
29-Sep-23 13:33 32.473723 -108.651793 69 13050ft 173kts
29-Sep-23 13:34 32.492206 -108.597793 67 13033ft 176kts
29-Sep-23 13:35 32.510855 -108.542697 67 13025ft 176kts
29-Sep-23 13:36 32.529521 -108.487200 67 13027ft 176kts
29-Sep-23 13:37 32.547708 -108.431444 69 13027ft 176kts
29-Sep-23 13:39 32.565818 -108.376056 67 13029ft 176kts
29-Sep-23 13:40 32.584753 -108.321041 68 13026ft 176kts
29-Sep-23 13:41 32.602982 -108.265792 71 13015ft 176kts
29-Sep-23 13:42 32.620985 -108.210558 67 13006ft 176kts
29-Sep-23 13:43 32.641384 -108.156505 56 12986ft 177kts
29-Sep-23 13:44 32.674364 -108.112051 46 12997ft 175kts
29-Sep-23 13:45 32.706900 -108.067427 47 13000ft 175kts
29-Sep-23 13:46 32.739555 -108.023099 49 13025ft 175kts
29-Sep-23 13:47 32.771994 -107.978883 48 13033ft 175kts
29-Sep-23 13:48 32.804527 -107.933834 45 13029ft 176kts
29-Sep-23 13:49 32.837897 -107.890154 46 13020ft 176kts
29-Sep-23 13:50 32.871017 -107.845969 48 13029ft 176kts
29-Sep-23 13:51 32.903705 -107.800929 49 13028ft 176kts
29-Sep-23 13:52 32.936499 -107.756286 48 13034ft 176kts
29-Sep-23 13:53 32.969476 -107.711252 47 12998ft 178kts
29-Sep-23 13:54 33.002684 -107.665424 47 12988ft 177kts
29-Sep-23 13:55 33.035813 -107.619981 47 12958ft 177kts
29-Sep-23 13:56 33.068876 -107.574953 46 12942ft 176kts
29-Sep-23 13:57 33.101514 -107.530367 48 12926ft 175kts
29-Sep-23 13:58 33.133609 -107.485282 49 12898ft 175kts
29-Sep-23 13:59 33.165229 -107.440332 46 12893ft 173kts
29-Sep-23 13:59 33.192431 -107.404477 45 12899ft 172kts
29-Sep-23 14:01 33.230434 -107.354196 45 12917ft 171kts
29-Sep-23 14:02 33.262206 -107.310658 48 12917ft 172kts
29-Sep-23 14:03 33.296986 -107.271295 23 12907ft 170kts
29-Sep-23 14:04 33.339412 -107.244870 24 12922ft 169kts
29-Sep-23 14:04 33.374743 -107.222492 26 12925ft 169kts
29-Sep-23 14:05 33.416817 -107.195109 25 12932ft 169kts
29-Sep-23 14:07 33.465880 -107.163327 28 12940ft 170kts
29-Sep-23 14:08 33.507867 -107.136252 23 12944ft 169kts
29-Sep-23 14:08 33.543419 -107.115036 25 12929ft 171kts
29-Sep-23 14:09 33.586113 -107.087542 25 12925ft 170kts
29-Sep-23 14:11 33.635571 -107.054915 25 12914ft 170kts
29-Sep-23 14:12 33.678664 -107.029673 25 12909ft 171kts
29-Sep-23 14:12 33.714080 -107.006885 26 12908ft 171kts
29-Sep-23 14:13 33.756399 -106.979015 25 12908ft 171kts
29-Sep-23 14:14 33.798702 -106.951809 25 12970ft 170kts
29-Sep-23 14:15 33.840746 -106.923569 23 12986ft 171kts
29-Sep-23 14:16 33.885845 -106.905220 2 13016ft 167kts
29-Sep-23 14:17 33.932799 -106.897086 3 13004ft 169kts
29-Sep-23 14:18 33.979891 -106.888301 4 13020ft 169kts
29-Sep-23 14:19 34.027462 -106.878809 5 13017ft 171kts
29-Sep-23 14:20 34.075064 -106.869257 3 13017ft 170kts
29-Sep-23 14:21 34.122922 -106.861911 3 13006ft 171kts
29-Sep-23 14:22 34.170470 -106.853928 5 13006ft 171kts
29-Sep-23 14:23 34.217911 -106.843243 4 13000ft 171kts
29-Sep-23 14:24 34.265682 -106.834392 3 12999ft 171kts
29-Sep-23 14:25 34.313252 -106.825208 1 12996ft 170kts
29-Sep-23 14:26 34.360587 -106.814329 10 12998ft 172kts
29-Sep-23 14:27 34.407597 -106.798686 9 12994ft 173kts
29-Sep-23 14:28 34.454878 -106.782712 9 13010ft 172kts
29-Sep-23 14:29 34.501902 -106.766918 6 13014ft 172kts
29-Sep-23 14:30 34.548801 -106.751943 9 13039ft 172kts
29-Sep-23 14:31 34.595942 -106.736600 10 13054ft 172kts
29-Sep-23 14:32 34.643315 -106.721729 10 13033ft 174kts
29-Sep-23 14:33 34.690613 -106.706440 10 13035ft 174kts
29-Sep-23 14:34 34.737894 -106.691873 5 13041ft 172kts
29-Sep-23 14:35 34.784877 -106.688080 327 12976ft 163kts
29-Sep-23 14:36 34.824897 -106.713585 332 13034ft 162kts
29-Sep-23 14:37 34.867095 -106.734775 329 13028ft 162kts
29-Sep-23 14:38 34.909575 -106.755177 330 13024ft 162kts
29-Sep-23 14:39 34.951669 -106.776728 333 13020ft 161kts
29-Sep-23 14:40 34.994129 -106.797066 337 12980ft 163kts
29-Sep-23 14:41 35.037967 -106.810217 14 13001ft 165kts
29-Sep-23 14:42 35.062323 -106.762324 62 12979ft 169kts
29-Sep-23 14:43 35.082739 -106.709820 64 12973ft 170kts
29-Sep-23 14:44 35.102433 -106.656945 63 12989ft 169kts
29-Sep-23 14:45 35.123047 -106.604721 63 12995ft 169kts
29-Sep-23 14:46 35.141721 -106.551009 64 13001ft 169kts
29-Sep-23 14:47 35.161446 -106.498074 62 13024ft 169kts
29-Sep-23 14:48 35.182491 -106.445639 64 12987ft 172kts
29-Sep-23 14:49 35.201462 -106.390926 64 12951ft 172kts
29-Sep-23 14:50 35.221919 -106.336734 64 12946ft 169kts
29-Sep-23 14:51 35.242433 -106.283398 59 12962ft 169kts
29-Sep-23 14:52 35.261803 -106.229704 67 12979ft 169kts
29-Sep-23 14:53 35.281042 -106.175834 65 12998ft 168kts
29-Sep-23 14:54 35.300530 -106.122002 63 13008ft 169kts
29-Sep-23 14:55 35.320843 -106.068505 63 13014ft 169kts
29-Sep-23 14:56 35.341114 -106.015182 63 13014ft 168kts
29-Sep-23 14:57 35.361378 -105.961889 63 13014ft 168kts
29-Sep-23 14:58 35.380540 -105.907873 65 13014ft 168kts
29-Sep-23 14:59 35.399375 -105.853731 65 13014ft 168kts
29-Sep-23 15:00 35.418014 -105.800157 65 13017ft 168kts
29-Sep-23 15:01 35.436588 -105.746824 65 13021ft 168kts
29-Sep-23 15:02 35.455805 -105.693423 64 13021ft 168kts
29-Sep-23 15:03 35.475098 -105.640526 64 13027ft 168kts
29-Sep-23 15:04 35.494548 -105.587193 64 13032ft 168kts
29-Sep-23 15:05 35.513971 -105.533981 64 13033ft 168kts
29-Sep-23 15:06 35.533690 -105.479976 64 13033ft 168kts
29-Sep-23 15:07 35.553271 -105.426235 64 13033ft 168kts
29-Sep-23 15:08 35.572514 -105.372112 64 13033ft 168kts
29-Sep-23 15:09 35.592219 -105.318521 64 13032ft 168kts
29-Sep-23 15:10 35.611990 -105.265263 65 13013ft 169kts
29-Sep-23 15:11 35.631279 -105.211605 64 13013ft 168kts
29-Sep-23 15:12 35.650509 -105.158135 64 13013ft 168kts
29-Sep-23 15:13 35.685485 -105.126185 11 13014ft 163kts
29-Sep-23 15:14 35.730246 -105.112711 11 13014ft 163kts
29-Sep-23 15:15 35.774860 -105.098933 11 13014ft 163kts
29-Sep-23 15:16 35.819777 -105.084863 11 13014ft 164kts
29-Sep-23 15:17 35.864663 -105.070601 11 13014ft 164kts
29-Sep-23 15:18 35.909519 -105.056158 11 13014ft 164kts
29-Sep-23 15:19 35.954463 -105.041503 11 13014ft 165kts
29-Sep-23 15:20 35.999588 -105.027342 10 13014ft 165kts
29-Sep-23 15:21 36.044663 -105.013295 10 13040ft 164kts
29-Sep-23 15:22 36.089606 -104.999048 10 13071ft 164kts
29-Sep-23 15:23 36.134588 -104.984590 10 13102ft 164kts
29-Sep-23 15:24 36.179564 -104.969769 10 13124ft 165kts
29-Sep-23 15:25 36.225077 -104.957121 5 13154ft 164kts
29-Sep-23 15:26 36.270418 -104.942370 9 13162ft 166kts
29-Sep-23 15:27 36.316118 -104.928254 8 13125ft 170kts
29-Sep-23 15:28 36.363297 -104.912605 9 13021ft 173kts
29-Sep-23 15:29 36.410629 -104.897498 9 12959ft 172kts
29-Sep-23 15:30 36.457219 -104.882472 9 12974ft 171kts
29-Sep-23 15:31 36.503703 -104.867369 6 12994ft 171kts
29-Sep-23 15:32 36.551517 -104.856553 3 12948ft 174kts
29-Sep-23 15:33 36.600101 -104.845563 3 12891ft 174kts
29-Sep-23 15:34 36.648627 -104.834547 5 12820ft 175kts
29-Sep-23 15:35 36.696340 -104.824236 4 12888ft 170kts
29-Sep-23 15:36 36.743607 -104.811808 7 12883ft 172kts
29-Sep-23 15:37 36.790865 -104.799906 4 12928ft 170kts
29-Sep-23 15:38 36.838324 -104.788647 4 12926ft 171kts
29-Sep-23 15:39 36.886059 -104.777378 5 12919ft 172kts
29-Sep-23 15:40 36.933720 -104.764683 4 12923ft 172kts
29-Sep-23 15:41 36.981432 -104.753480 4 12946ft 170kts
29-Sep-23 15:42 37.028660 -104.741713 5 12928ft 169kts
29-Sep-23 15:43 37.075223 -104.729449 9 12869ft 167kts
29-Sep-23 15:44 37.121030 -104.719179 6 12848ft 162kts
29-Sep-23 15:45 37.166108 -104.708139 8 12844ft 161kts
29-Sep-23 15:46 37.210697 -104.698014 6 12852ft 160kts
29-Sep-23 15:47 37.255241 -104.687330 6 12864ft 159kts
29-Sep-23 15:48 37.299628 -104.676984 6 12865ft 159kts
29-Sep-23 15:49 37.344013 -104.665201 9 12869ft 160kts
29-Sep-23 15:50 37.388190 -104.654076 6 12878ft 159kts
29-Sep-23 15:51 37.432649 -104.643381 8 12880ft 159kts
29-Sep-23 15:52 37.476889 -104.632967 6 12973ft 154kts
29-Sep-23 15:53 37.519938 -104.622752 7 13062ft 153kts
29-Sep-23 15:54 37.562607 -104.611571 7 13108ft 156kts
29-Sep-23 15:55 37.606272 -104.601044 6 13099ft 159kts
29-Sep-23 15:56 37.650356 -104.589894 8 13067ft 161kts
29-Sep-23 15:57 37.694964 -104.578450 7 13048ft 161kts
29-Sep-23 15:58 37.739679 -104.567625 6 13022ft 161kts
29-Sep-23 15:59 37.784469 -104.557454 7 13014ft 160kts
29-Sep-23 16:00 37.828782 -104.546532 7 13006ft 160kts
29-Sep-23 16:01 37.873032 -104.534524 8 13014ft 159kts
29-Sep-23 16:02 37.917138 -104.523750 5 13036ft 158kts
29-Sep-23 16:03 37.961367 -104.512860 7 13021ft 160kts
29-Sep-23 16:04 38.005758 -104.501043 8 13019ft 160kts
29-Sep-23 16:05 38.050436 -104.489915 6 13016ft 159kts
29-Sep-23 16:06 38.095120 -104.478735 8 13016ft 159kts
29-Sep-23 16:07 38.139689 -104.467302 8 13011ft 160kts
29-Sep-23 16:08 38.184517 -104.458133 6 13020ft 160kts
29-Sep-23 16:09 38.228777 -104.444893 8 13015ft 160kts
29-Sep-23 16:10 38.273449 -104.434499 14 13018ft 160kts
29-Sep-23 16:11 38.317861 -104.422440 354 12988ft 160kts
29-Sep-23 16:16 38.535865 -104.468587 348 11709ft 155kts
29-Sep-23 16:17 38.578714 -104.477144 350 11002ft 154kts
29-Sep-23 16:18 38.620984 -104.485333 354 10300ft 149kts
29-Sep-23 16:19 38.662099 -104.490617 350 10179ft 144kts
29-Sep-23 16:20 38.703944 -104.497457 349 10210ft 156kts
29-Sep-23 16:21 38.747878 -104.503861 347 10185ft 160kts
29-Sep-23 16:22 38.792615 -104.514044 350 10148ft 160kts
29-Sep-23 16:23 38.837641 -104.521033 348 10156ft 159kts
29-Sep-23 16:24 38.881938 -104.529001 347 10187ft 158kts
29-Sep-23 16:25 38.926100 -104.536132 346 10223ft 156kts
29-Sep-23 16:26 38.968266 -104.542373 346 10166ft 140kts
29-Sep-23 16:27 39.006478 -104.549829 342 10230ft 124kts
29-Sep-23 16:28 39.040513 -104.555845 345 10270ft 121kts
29-Sep-23 16:29 39.057902 -104.580278 250 9888ft 111kts
29-Sep-23 16:30 39.053570 -104.618566 263 9629ft 107kts
29-Sep-23 16:31 39.052262 -104.656676 263 9593ft 104kts
29-Sep-23 16:32 39.051809 -104.694568 266 9588ft 104kts
29-Sep-23 16:33 39.025833 -104.711721 195 9071ft 122kts
29-Sep-23 16:34 38.991241 -104.714127 185 8715ft 117kts
29-Sep-23 16:35 38.961493 -104.715540 187 8833ft 102kts
29-Sep-23 16:36 38.933539 -104.715381 184 8663ft 100kts
29-Sep-23 16:37 38.905482 -104.715554 181 8103ft 98kts
29-Sep-23 16:38 38.878259 -104.715725 179 7471ft 90kts
29-Sep-23 16:39 38.855441 -104.716042 176 6955ft 77kts
29-Sep-23 16:41 38.834084 -104.715853 177 6448ft 68kts
29-Sep-23 16:42 38.816154 -104.715918 183 6130ft 49kts
29-Sep-23 16:43 38.812599 -104.717141 269 6112ft 0kts
29-Sep-23 16:44 38.812585 -104.720015 256 6109ft 10kts
29-Sep-23 16:45 38.810163 -104.720349 91 6097ft 0kts

Navigation Log

Ident Type
Flight plan parsing failed, navigation log unavailable